Time;durP1;ratioP1;P1;durP2;ratioP2;P2;SDS_P1;SDS_P2;PMS_P1;PMS_P2;Temp;Humidity;BMP_temperature;BMP_pressure;BME280_temperature;BME280_humidity;BME280_pressure;Samples;Min_cycle;Max_cycle;Signal;HPM_P1;HPM_P2
2023/08/10 00:00:08;;;;;;;1.05;0.57;;;;;;;;;;5095976;28;20038;-86
2023/08/10 00:02:33;;;;;;;0.68;0.50;;;;;;;;;;5099375;28;20047;-86
2023/08/10 00:04:58;;;;;;;0.32;0.32;;;;;;;;;;5106050;28;20114;-86
2023/08/10 00:07:24;;;;;;;0.20;0.20;;;;;;;;;;5107817;28;20119;-86
2023/08/10 00:09:49;;;;;;;0.80;0.55;;;;;;;;;;5100461;28;20024;-85
2023/08/10 00:12:15;;;;;;;0.38;0.38;;;;;;;;;;5098151;28;20028;-86
2023/08/10 00:14:40;;;;;;;0.50;0.50;;;;;;;;;;5106470;28;20765;-85
2023/08/10 00:17:06;;;;;;;0.35;0.35;;;;;;;;;;5103012;28;20079;-88
2023/08/10 00:19:31;;;;;;;0.30;0.30;;;;;;;;;;5091363;28;20471;-87
2023/08/10 00:21:56;;;;;;;1.10;0.68;;;;;;;;;;5088191;28;20027;-89
2023/08/10 00:24:22;;;;;;;0.38;0.38;;;;;;;;;;5092189;28;20028;-88
2023/08/10 00:26:48;;;;;;;0.50;0.50;;;;;;;;;;5094105;28;20020;-88
2023/08/10 00:29:13;;;;;;;0.20;0.20;;;;;;;;;;5092596;28;20036;-86
2023/08/10 00:31:38;;;;;;;0.77;0.50;;;;;;;;;;5085592;28;20024;-86
2023/08/10 00:34:04;;;;;;;0.50;0.50;;;;;;;;;;5086376;28;20537;-88
2023/08/10 00:36:29;;;;;;;0.38;0.38;;;;;;;;;;5085860;28;20038;-88
2023/08/10 00:38:55;;;;;;;0.47;0.40;;;;;;;;;;5087054;28;20039;-87
2023/08/10 00:41:20;;;;;;;0.38;0.20;;;;;;;;;;5092001;28;20375;-86
2023/08/10 00:43:46;;;;;;;0.43;0.40;;;;;;;;;;5086691;28;20048;-87
2023/08/10 00:46:12;;;;;;;0.55;0.30;;;;;;;;;;5093665;28;20047;-85
2023/08/10 00:48:39;;;;;;;0.57;0.32;;;;;;;;;;5087608;28;20036;-84
2023/08/10 00:51:05;;;;;;;0.30;0.30;;;;;;;;;;5091403;28;20081;-86
2023/08/10 00:53:30;;;;;;;0.28;0.28;;;;;;;;;;5092711;28;20031;-84
2023/08/10 00:55:56;;;;;;;0.47;0.47;;;;;;;;;;5090032;28;20023;-83
2023/08/10 00:58:22;;;;;;;0.20;0.20;;;;;;;;;;5084279;28;20032;-86
2023/08/10 01:00:48;;;;;;;0.30;0.30;;;;;;;;;;5081316;28;20024;-85
2023/08/10 01:03:15;;;;;;;0.55;0.55;;;;;;;;;;5083643;28;20028;-87
2023/08/10 01:06:20;;;;;;;0.20;0.20;;;;;;;;;;5083130;28;20470;-87
2023/08/10 01:09:16;;;;;;;0.68;0.68;;;;;;;;;;5096650;27;20047;-86
2023/08/10 01:12:09;;;;;;;0.68;0.57;;;;;;;;;;5087429;28;20139;-88
2023/08/10 01:15:18;;;;;;;0.80;0.35;;;;;;;;;;5085394;28;20035;-86
2023/08/10 01:17:50;;;;;;;0.40;0.40;;;;;;;;;;5088413;28;20523;-85
2023/08/10 01:20:21;;;;;;;0.68;0.47;;;;;;;;;;5090870;28;20344;-85
2023/08/10 01:23:13;;;;;;;0.40;0.35;;;;;;;;;;5087556;28;20128;-86
2023/08/10 01:25:41;;;;;;;0.43;0.30;;;;;;;;;;5088232;28;20028;-85
2023/08/10 01:28:07;;;;;;;0.10;0.10;;;;;;;;;;5089474;28;20031;-86
2023/08/10 01:30:32;;;;;;;0.95;0.60;;;;;;;;;;5091265;28;20031;-85
2023/08/10 01:32:58;;;;;;;0.57;0.47;;;;;;;;;;5086600;28;20027;-83
2023/08/10 01:35:24;;;;;;;0.30;0.30;;;;;;;;;;5089427;28;20023;-86
2023/08/10 01:37:50;;;;;;;0.52;0.50;;;;;;;;;;5088912;28;20029;-86
2023/08/10 01:40:16;;;;;;;0.52;0.50;;;;;;;;;;5090129;28;20093;-87
2023/08/10 01:42:43;;;;;;;0.32;0.32;;;;;;;;;;5088780;28;20582;-85
2023/08/10 01:45:09;;;;;;;1.20;0.77;;;;;;;;;;5092213;28;20032;-86
2023/08/10 01:47:59;;;;;;;0.45;0.45;;;;;;;;;;5091602;28;20019;-86
2023/08/10 01:50:27;;;;;;;0.93;0.75;;;;;;;;;;5092154;28;20027;-87
2023/08/10 01:53:15;;;;;;;0.30;0.30;;;;;;;;;;5085665;28;20087;-86
2023/08/10 01:55:41;;;;;;;1.10;0.73;;;;;;;;;;5087984;28;20449;-86
2023/08/10 01:58:07;;;;;;;0.85;0.55;;;;;;;;;;5091786;28;20058;-86
2023/08/10 02:00:37;;;;;;;0.47;0.47;;;;;;;;;;5089501;28;20051;-88
2023/08/10 02:03:03;;;;;;;0.70;0.47;;;;;;;;;;5090364;28;20024;-85
2023/08/10 02:05:28;;;;;;;0.20;0.20;;;;;;;;;;5090296;28;20055;-86
2023/08/10 02:07:54;;;;;;;0.52;0.32;;;;;;;;;;5089442;28;20035;-85
2023/08/10 02:10:19;;;;;;;0.35;0.35;;;;;;;;;;5082166;28;20035;-89
2023/08/10 02:12:45;;;;;;;0.10;0.10;;;;;;;;;;5087422;28;20032;-86
2023/08/10 02:15:12;;;;;;;0.47;0.40;;;;;;;;;;5085885;28;20139;-85
2023/08/10 02:17:38;;;;;;;0.63;0.63;;;;;;;;;;5088941;28;20048;-86
2023/08/10 02:20:11;;;;;;;0.22;0.22;;;;;;;;;;5091199;28;20106;-84
2023/08/10 02:22:41;;;;;;;0.70;0.70;;;;;;;;;;5091450;28;20020;-85
2023/08/10 02:25:07;;;;;;;0.77;0.40;;;;;;;;;;5084654;28;20035;-86
2023/08/10 02:27:32;;;;;;;0.68;0.50;;;;;;;;;;5088833;28;20024;-86
2023/08/10 02:29:57;;;;;;;0.70;0.50;;;;;;;;;;5091162;28;20036;-86
2023/08/10 02:32:23;;;;;;;0.95;0.55;;;;;;;;;;5091353;28;20043;-84
2023/08/10 02:34:48;;;;;;;0.45;0.40;;;;;;;;;;5084946;28;20027;-86
2023/08/10 02:37:13;;;;;;;0.50;0.50;;;;;;;;;;5087428;28;20035;-85
2023/08/10 02:39:39;;;;;;;0.75;0.50;;;;;;;;;;5090349;28;20031;-87
2023/08/10 02:42:05;;;;;;;0.60;0.60;;;;;;;;;;5088026;28;20407;-85
2023/08/10 02:44:30;;;;;;;1.02;0.52;;;;;;;;;;5085820;28;20387;-84
2023/08/10 02:46:56;;;;;;;0.63;0.63;;;;;;;;;;5080270;28;20020;-84
2023/08/10 02:49:21;;;;;;;0.50;0.50;;;;;;;;;;5088223;28;20028;-82
2023/08/10 02:51:47;;;;;;;0.45;0.45;;;;;;;;;;5090878;28;20471;-87
2023/08/10 02:54:12;;;;;;;1.25;0.68;;;;;;;;;;5090760;28;20016;-84
2023/08/10 02:56:37;;;;;;;1.85;0.65;;;;;;;;;;5081513;28;20032;-88
2023/08/10 02:59:04;;;;;;;0.80;0.77;;;;;;;;;;5083427;28;20055;-85
2023/08/10 03:01:29;;;;;;;0.95;0.63;;;;;;;;;;5080978;28;20039;-85
2023/08/10 03:03:55;;;;;;;4.13;0.73;;;;;;;;;;5075310;28;20020;-86
2023/08/10 03:06:20;;;;;;;0.95;0.70;;;;;;;;;;5081861;28;20043;-85
2023/08/10 03:08:45;;;;;;;1.02;0.70;;;;;;;;;;5079151;28;20060;-89
2023/08/10 03:11:12;;;;;;;0.70;0.70;;;;;;;;;;5076406;28;20032;-88
2023/08/10 03:13:38;;;;;;;1.17;0.80;;;;;;;;;;5081020;28;20024;-87
2023/08/10 03:16:36;;;;;;;;;;;;;;;;;;;;;
2023/08/10 03:19:02;;;;;;;0.60;0.57;;;;;;;;;;5087044;28;20040;-87
2023/08/10 03:21:28;;;;;;;0.80;0.60;;;;;;;;;;5093326;28;20110;-88
2023/08/10 03:24:06;;;;;;;0.50;0.32;;;;;;;;;;5087372;28;20525;-91
2023/08/10 03:26:31;;;;;;;1.15;0.75;;;;;;;;;;5102267;28;20100;-86
2023/08/10 03:28:57;;;;;;;0.60;0.60;;;;;;;;;;5099532;28;20039;-87
2023/08/10 03:31:23;;;;;;;0.93;0.68;;;;;;;;;;5097769;28;20043;-86
2023/08/10 03:33:49;;;;;;;1.77;1.15;;;;;;;;;;5098304;28;20084;-86
2023/08/10 03:36:15;;;;;;;0.88;0.50;;;;;;;;;;5101122;28;20039;-89
2023/08/10 03:38:40;;;;;;;0.80;0.60;;;;;;;;;;5107056;28;20063;-86
2023/08/10 03:41:06;;;;;;;0.77;0.73;;;;;;;;;;5108404;28;20039;-91
2023/08/10 03:43:31;;;;;;;1.33;1.10;;;;;;;;;;5101934;28;20063;-90
2023/08/10 03:45:57;;;;;;;0.47;0.47;;;;;;;;;;5092932;28;20031;-90
2023/08/10 03:48:23;;;;;;;0.55;0.50;;;;;;;;;;5107747;28;20028;-87
2023/08/10 03:50:48;;;;;;;0.77;0.70;;;;;;;;;;5101451;28;20072;-88
2023/08/10 03:53:13;;;;;;;1.02;0.88;;;;;;;;;;5091691;28;20460;-88
2023/08/10 03:55:39;;;;;;;1.05;0.82;;;;;;;;;;5095971;28;20028;-87
2023/08/10 03:58:04;;;;;;;1.38;0.90;;;;;;;;;;5093853;28;20035;-86
2023/08/10 04:00:30;;;;;;;4.97;1.05;;;;;;;;;;5084179;28;20024;-88
2023/08/10 04:02:56;;;;;;;1.10;0.80;;;;;;;;;;5093449;28;20065;-88
2023/08/10 04:05:21;;;;;;;0.93;0.60;;;;;;;;;;5094891;28;20105;-88
2023/08/10 04:07:49;;;;;;;0.55;0.52;;;;;;;;;;5091930;28;20062;-90
2023/08/10 04:10:15;;;;;;;1.00;0.88;;;;;;;;;;5093120;28;20027;-88
2023/08/10 04:12:40;;;;;;;1.08;0.90;;;;;;;;;;5087224;28;20031;-91
2023/08/10 04:15:06;;;;;;;1.85;0.80;;;;;;;;;;5084781;28;20085;-88
2023/08/10 04:17:41;;;;;;;0.80;0.70;;;;;;;;;;5085656;28;20093;-86
2023/08/10 04:20:10;;;;;;;1.02;0.80;;;;;;;;;;5083620;28;20032;-83
2023/08/10 04:22:36;;;;;;;0.70;0.70;;;;;;;;;;5084278;28;21395;-83
2023/08/10 04:25:03;;;;;;;1.20;0.93;;;;;;;;;;5079388;28;20308;-85
2023/08/10 04:27:29;;;;;;;1.15;0.55;;;;;;;;;;5083460;28;20111;-83
2023/08/10 04:29:54;;;;;;;0.82;0.75;;;;;;;;;;5085073;28;20170;-84
2023/08/10 04:32:20;;;;;;;1.02;0.90;;;;;;;;;;5085218;28;20529;-82
2023/08/10 04:34:45;;;;;;;0.80;0.52;;;;;;;;;;5091900;28;20042;-87
2023/08/10 04:37:12;;;;;;;0.88;0.70;;;;;;;;;;5093915;28;20031;-88
2023/08/10 04:39:41;;;;;;;0.52;0.47;;;;;;;;;;5091212;28;20476;-88
2023/08/10 04:42:06;;;;;;;1.48;1.25;;;;;;;;;;5084878;28;20510;-87
2023/08/10 04:44:32;;;;;;;0.90;0.85;;;;;;;;;;5084854;28;20033;-87
2023/08/10 04:46:57;;;;;;;4.15;1.05;;;;;;;;;;5094761;28;20493;-87
2023/08/10 04:49:23;;;;;;;1.73;1.05;;;;;;;;;;5085265;28;20020;-87
2023/08/10 04:51:49;;;;;;;0.60;0.60;;;;;;;;;;5096734;28;20019;-86
2023/08/10 04:54:14;;;;;;;0.95;0.75;;;;;;;;;;5094927;28;20467;-86
2023/08/10 04:56:40;;;;;;;0.75;0.60;;;;;;;;;;5089938;28;20732;-87
2023/08/10 04:59:05;;;;;;;1.90;1.42;;;;;;;;;;5087422;28;20020;-87
2023/08/10 05:01:31;;;;;;;2.42;1.10;;;;;;;;;;5092405;28;20032;-88
2023/08/10 05:03:56;;;;;;;0.90;0.90;;;;;;;;;;5087502;28;20096;-88
2023/08/10 05:06:22;;;;;;;1.98;1.30;;;;;;;;;;5090464;28;20033;-87
2023/08/10 05:08:47;;;;;;;5.35;1.38;;;;;;;;;;5089690;28;20036;-88
2023/08/10 05:11:13;;;;;;;1.38;0.70;;;;;;;;;;5085413;28;20384;-85
2023/08/10 05:13:39;;;;;;;0.38;0.38;;;;;;;;;;5089003;28;20027;-88
2023/08/10 05:16:04;;;;;;;1.48;0.73;;;;;;;;;;5087757;28;20498;-88
2023/08/10 05:18:30;;;;;;;0.77;0.60;;;;;;;;;;5084554;28;20132;-89
2023/08/10 05:21:02;;;;;;;0.55;0.55;;;;;;;;;;5086846;28;20468;-87
2023/08/10 05:23:28;;;;;;;0.65;0.65;;;;;;;;;;5092740;28;20479;-88
2023/08/10 05:25:53;;;;;;;0.75;0.75;;;;;;;;;;5089718;28;20039;-89
2023/08/10 05:28:19;;;;;;;0.45;0.45;;;;;;;;;;5087013;28;20032;-89
2023/08/10 05:30:44;;;;;;;1.55;0.75;;;;;;;;;;5092745;28;20024;-88
2023/08/10 05:33:10;;;;;;;1.27;1.00;;;;;;;;;;5120676;27;20027;-87
2023/08/10 05:35:35;;;;;;;1.17;0.85;;;;;;;;;;5087570;28;20026;-88
2023/08/10 05:38:00;;;;;;;1.25;0.80;;;;;;;;;;5084077;28;20016;-87
2023/08/10 05:40:26;;;;;;;1.15;1.02;;;;;;;;;;5092940;28;20032;-87
2023/08/10 05:42:51;;;;;;;1.35;1.05;;;;;;;;;;5090759;28;20038;-85
2023/08/10 05:45:19;;;;;;;8.02;0.98;;;;;;;;;;5092668;28;20031;-85
2023/08/10 05:47:46;;;;;;;0.85;0.60;;;;;;;;;;5086463;28;20093;-84
2023/08/10 05:50:15;;;;;;;1.02;0.77;;;;;;;;;;5083642;28;20471;-85
2023/08/10 05:52:40;;;;;;;2.00;1.17;;;;;;;;;;5090254;28;20027;-86
2023/08/10 05:55:06;;;;;;;1.27;0.90;;;;;;;;;;5090373;28;20099;-86
2023/08/10 05:57:32;;;;;;;1.63;1.10;;;;;;;;;;5092902;28;20036;-86
2023/08/10 05:59:57;;;;;;;1.02;0.82;;;;;;;;;;5091077;28;20024;-87
2023/08/10 06:02:26;;;;;;;1.60;1.10;;;;;;;;;;5089244;28;20024;-87
2023/08/10 06:04:52;;;;;;;0.82;0.50;;;;;;;;;;5084333;28;20443;-86
2023/08/10 06:07:17;;;;;;;1.13;0.60;;;;;;;;;;5086097;28;20081;-85
2023/08/10 06:09:47;;;;;;;0.85;0.50;;;;;;;;;;5088742;28;20032;-85
2023/08/10 06:12:12;;;;;;;0.00;0.00;;;;;;;;;;5088908;28;20506;-84
2023/08/10 06:14:38;;;;;;;0.28;0.28;;;;;;;;;;5082838;28;20024;-84
2023/08/10 06:17:07;;;;;;;0.75;0.68;;;;;;;;;;5084858;28;20040;-86
2023/08/10 06:19:33;;;;;;;1.35;1.27;;;;;;;;;;5090331;28;20034;-85
2023/08/10 06:21:58;;;;;;;0.70;0.70;;;;;;;;;;5088907;28;20024;-88
2023/08/10 06:24:24;;;;;;;1.67;1.00;;;;;;;;;;5087457;28;20089;-85
2023/08/10 06:26:49;;;;;;;1.17;1.05;;;;;;;;;;5091520;28;20042;-90
2023/08/10 06:29:15;;;;;;;1.58;1.40;;;;;;;;;;5090287;28;20036;-87
2023/08/10 06:31:41;;;;;;;2.88;1.42;;;;;;;;;;5084979;28;20028;-84
2023/08/10 06:34:06;;;;;;;1.02;0.80;;;;;;;;;;5089280;28;20982;-84
2023/08/10 06:36:32;;;;;;;0.73;0.68;;;;;;;;;;5089533;28;20028;-85
2023/08/10 06:38:57;;;;;;;0.63;0.50;;;;;;;;;;5089512;28;20031;-85
2023/08/10 06:41:23;;;;;;;1.45;0.95;;;;;;;;;;5083800;28;20066;-85
2023/08/10 06:43:49;;;;;;;0.98;0.77;;;;;;;;;;5078711;28;20027;-85
2023/08/10 06:46:14;;;;;;;1.48;0.90;;;;;;;;;;5077566;28;20096;-87
2023/08/10 06:48:39;;;;;;;0.50;0.50;;;;;;;;;;5078449;28;20020;-88
2023/08/10 06:51:05;;;;;;;3.22;1.35;;;;;;;;;;5074130;28;20093;-88
2023/08/10 06:53:31;;;;;;;1.20;1.10;;;;;;;;;;5084796;28;20123;-89
2023/08/10 06:55:57;;;;;;;0.77;0.68;;;;;;;;;;5083493;28;20020;-89
2023/08/10 06:58:22;;;;;;;1.95;1.35;;;;;;;;;;5086546;28;20028;-89
2023/08/10 07:00:48;;;;;;;1.38;1.10;;;;;;;;;;5085641;28;20039;-89
2023/08/10 07:03:14;;;;;;;1.30;1.05;;;;;;;;;;5083869;28;20033;-89
2023/08/10 07:05:42;;;;;;;1.80;1.48;;;;;;;;;;5089490;28;20076;-87
2023/08/10 07:08:08;;;;;;;0.95;0.85;;;;;;;;;;5085306;28;20107;-88
2023/08/10 07:10:34;;;;;;;2.20;1.33;;;;;;;;;;5082732;28;20558;-90
2023/08/10 07:13:00;;;;;;;1.10;0.98;;;;;;;;;;5085480;28;20423;-85
2023/08/10 07:15:25;;;;;;;1.40;1.05;;;;;;;;;;5081979;28;20039;-83
2023/08/10 07:17:51;;;;;;;3.28;1.55;;;;;;;;;;5088753;28;20566;-83
2023/08/10 07:20:18;;;;;;;3.17;0.93;;;;;;;;;;5089685;28;20024;-84
2023/08/10 07:22:45;;;;;;;1.75;1.35;;;;;;;;;;5087095;28;20027;-85
2023/08/10 07:25:16;;;;;;;1.30;0.93;;;;;;;;;;5087734;28;20035;-84
2023/08/10 07:27:43;;;;;;;2.22;1.45;;;;;;;;;;5090615;28;20078;-84
2023/08/10 07:30:09;;;;;;;1.38;1.13;;;;;;;;;;5092345;28;20471;-85
2023/08/10 07:32:34;;;;;;;1.48;0.98;;;;;;;;;;5094261;28;20107;-84
2023/08/10 07:35:00;;;;;;;1.08;0.98;;;;;;;;;;5094253;28;20129;-83
2023/08/10 07:37:25;;;;;;;1.45;1.17;;;;;;;;;;5094318;28;20020;-83
2023/08/10 07:39:51;;;;;;;1.50;1.15;;;;;;;;;;5093754;28;20098;-83
2023/08/10 07:42:16;;;;;;;1.98;1.40;;;;;;;;;;5093160;28;20472;-84
2023/08/10 07:44:44;;;;;;;1.02;0.93;;;;;;;;;;5090774;28;20026;-83
2023/08/10 07:47:10;;;;;;;1.50;1.30;;;;;;;;;;5092510;28;20050;-86
2023/08/10 07:49:35;;;;;;;2.08;1.60;;;;;;;;;;5093328;28;20090;-85
2023/08/10 07:52:00;;;;;;;2.47;1.70;;;;;;;;;;5093307;28;20104;-85
2023/08/10 07:54:26;;;;;;;1.35;1.13;;;;;;;;;;5093782;28;20028;-86
2023/08/10 07:56:52;;;;;;;2.45;1.95;;;;;;;;;;5093751;28;20028;-86
2023/08/10 07:59:17;;;;;;;3.00;2.05;;;;;;;;;;5090864;28;20024;-86
2023/08/10 08:01:43;;;;;;;16.35;2.03;;;;;;;;;;5093950;28;20031;-85
2023/08/10 08:04:09;;;;;;;1.92;1.42;;;;;;;;;;5094128;28;20379;-85
2023/08/10 08:06:38;;;;;;;2.78;2.20;;;;;;;;;;5092490;28;20028;-85
2023/08/10 08:09:06;;;;;;;2.20;1.80;;;;;;;;;;5093688;28;20036;-84
2023/08/10 08:11:32;;;;;;;1.63;1.45;;;;;;;;;;5093572;28;20031;-84
2023/08/10 08:13:57;;;;;;;2.03;1.40;;;;;;;;;;5091831;28;20073;-85
2023/08/10 08:16:23;;;;;;;3.38;1.45;;;;;;;;;;5093979;28;20133;-84
2023/08/10 08:18:52;;;;;;;1.48;1.38;;;;;;;;;;5093800;28;20502;-85
2023/08/10 08:21:19;;;;;;;;;;;;;;;;;;5094295;28;20483;-84
2023/08/10 08:23:45;;;;;;;1.70;1.45;;;;;;;;;;5091269;28;20001;-84
2023/08/10 08:26:11;;;;;;;2.17;1.70;;;;;;;;;;5092773;28;20032;-84
2023/08/10 08:28:37;;;;;;;2.70;1.73;;;;;;;;;;5092476;28;20032;-83
2023/08/10 08:31:03;;;;;;;2.00;1.58;;;;;;;;;;5093565;28;20024;-84
2023/08/10 08:33:28;;;;;;;1.88;1.40;;;;;;;;;;5093041;28;20028;-84
2023/08/10 08:35:54;;;;;;;1.63;1.52;;;;;;;;;;5093454;28;20489;-84
2023/08/10 08:38:19;;;;;;;2.13;1.92;;;;;;;;;;5092979;28;20455;-83
2023/08/10 08:40:45;;;;;;;1.65;1.52;;;;;;;;;;5087671;28;20028;-84
2023/08/10 08:43:11;;;;;;;1.70;1.38;;;;;;;;;;5092141;28;20051;-83
2023/08/10 08:45:40;;;;;;;2.28;2.03;;;;;;;;;;5090804;28;20027;-83
2023/08/10 08:48:07;;;;;;;3.00;2.15;;;;;;;;;;5092910;28;20034;-84
2023/08/10 08:50:34;;;;;;;3.22;2.25;;;;;;;;;;5092933;28;20027;-83
2023/08/10 08:53:00;;;;;;;2.78;1.75;;;;;;;;;;5090267;28;20116;-83
2023/08/10 08:55:27;;;;;;;2.33;1.92;;;;;;;;;;5089460;28;20461;-84
2023/08/10 08:57:52;;;;;;;2.35;1.90;;;;;;;;;;5088642;28;20032;-84
2023/08/10 09:00:18;;;;;;;7.10;1.77;;;;;;;;;;5089699;28;20085;-83
2023/08/10 09:02:43;;;;;;;3.20;1.90;;;;;;;;;;5085906;28;20406;-84
2023/08/10 09:05:09;;;;;;;2.28;1.60;;;;;;;;;;5092800;28;20040;-83
2023/08/10 09:07:34;;;;;;;2.65;1.67;;;;;;;;;;5092221;28;20024;-83
2023/08/10 09:10:00;;;;;;;2.55;2.17;;;;;;;;;;5092509;28;20032;-83
2023/08/10 09:12:30;;;;;;;1.58;1.40;;;;;;;;;;5092650;28;20070;-84
2023/08/10 09:15:02;;;;;;;1.23;1.13;;;;;;;;;;5092276;28;20490;-82
2023/08/10 09:17:28;;;;;;;1.77;1.50;;;;;;;;;;5090882;28;20395;-82
2023/08/10 09:19:54;;;;;;;1.65;1.55;;;;;;;;;;5091295;28;20035;-82
2023/08/10 09:22:37;;;;;;;1.15;1.05;;;;;;;;;;5092270;28;20027;-82
2023/08/10 09:25:04;;;;;;;2.47;1.80;;;;;;;;;;5092026;28;20110;-82
2023/08/10 09:27:30;;;;;;;2.08;1.60;;;;;;;;;;5091867;28;20111;-84
2023/08/10 09:30:00;;;;;;;1.13;1.02;;;;;;;;;;5092208;28;20020;-82
2023/08/10 09:32:28;;;;;;;2.22;1.70;;;;;;;;;;5090845;28;20110;-84
2023/08/10 09:34:54;;;;;;;1.55;1.00;;;;;;;;;;5090917;28;20029;-83
2023/08/10 09:37:20;;;;;;;1.35;1.25;;;;;;;;;;5089249;28;20024;-83
2023/08/10 09:39:46;;;;;;;1.25;1.02;;;;;;;;;;5091439;28;20023;-84
2023/08/10 09:42:12;;;;;;;2.05;1.20;;;;;;;;;;5092249;28;20032;-84
2023/08/10 09:44:48;;;;;;;1.23;1.10;;;;;;;;;;5092160;28;20034;-85
2023/08/10 09:47:15;;;;;;;1.33;0.98;;;;;;;;;;5089566;28;20375;-83
2023/08/10 09:49:56;;;;;;;4.75;1.85;;;;;;;;;;5091818;28;20490;-85
2023/08/10 09:52:23;;;;;;;1.67;1.17;;;;;;;;;;5088454;28;20024;-85
2023/08/10 09:54:53;;;;;;;0.80;0.80;;;;;;;;;;5091738;28;20427;-84
2023/08/10 09:57:19;;;;;;;1.65;1.33;;;;;;;;;;5091690;28;20020;-85
2023/08/10 09:59:45;;;;;;;1.35;1.02;;;;;;;;;;5092451;28;20040;-84
2023/08/10 10:02:11;;;;;;;1.35;1.15;;;;;;;;;;5087981;28;20050;-84
2023/08/10 10:04:38;;;;;;;1.27;1.15;;;;;;;;;;5091221;28;20039;-84
2023/08/10 10:07:05;;;;;;;0.95;0.77;;;;;;;;;;5091821;28;20032;-84
2023/08/10 10:09:33;;;;;;;1.77;1.15;;;;;;;;;;5089110;28;20020;-85
2023/08/10 10:12:00;;;;;;;0.80;0.80;;;;;;;;;;5089201;28;20032;-85
2023/08/10 10:14:27;;;;;;;2.15;1.25;;;;;;;;;;5091460;28;20035;-85
2023/08/10 10:16:53;;;;;;;1.05;0.95;;;;;;;;;;5090702;28;20523;-84
2023/08/10 10:19:20;;;;;;;1.33;1.05;;;;;;;;;;5090139;28;20028;-83
2023/08/10 10:21:47;;;;;;;1.02;0.90;;;;;;;;;;5091430;28;20036;-85
2023/08/10 10:24:13;;;;;;;1.13;1.00;;;;;;;;;;5091091;28;20028;-84
2023/08/10 10:26:39;;;;;;;6.60;1.58;;;;;;;;;;5089078;28;20020;-84
2023/08/10 10:29:13;;;;;;;2.15;1.35;;;;;;;;;;5091261;28;20153;-83
2023/08/10 10:31:39;;;;;;;0.75;0.70;;;;;;;;;;5090629;28;20479;-84
2023/08/10 10:34:04;;;;;;;1.30;1.00;;;;;;;;;;5090929;28;20050;-84
2023/08/10 10:36:33;;;;;;;1.40;1.30;;;;;;;;;;5089337;28;20047;-84
2023/08/10 10:39:11;;;;;;;1.17;1.08;;;;;;;;;;5088936;28;20036;-83
2023/08/10 10:41:40;;;;;;;2.10;1.58;;;;;;;;;;5088762;28;20081;-83
2023/08/10 10:44:08;;;;;;;1.67;1.20;;;;;;;;;;5090748;28;20475;-83
2023/08/10 10:46:33;;;;;;;0.77;0.77;;;;;;;;;;5087935;28;20050;-83
2023/08/10 10:49:13;;;;;;;1.60;1.13;;;;;;;;;;5089166;28;20020;-83
2023/08/10 10:52:04;;;;;;;1.67;0.98;;;;;;;;;;5090187;28;20024;-83
2023/08/10 10:54:35;;;;;;;1.60;1.50;;;;;;;;;;5090586;28;20103;-82
2023/08/10 10:57:01;;;;;;;1.45;1.05;;;;;;;;;;5088604;28;20028;-81
2023/08/10 10:59:27;;;;;;;1.27;1.05;;;;;;;;;;5091316;28;20046;-81
2023/08/10 11:01:52;;;;;;;1.17;1.08;;;;;;;;;;5089587;28;20418;-82
2023/08/10 11:04:20;;;;;;;1.00;0.90;;;;;;;;;;5090466;28;20132;-81
2023/08/10 11:06:46;;;;;;;1.73;1.17;;;;;;;;;;5088831;28;20111;-83
2023/08/10 11:09:13;;;;;;;0.82;0.82;;;;;;;;;;5090781;28;20099;-83
2023/08/10 11:11:39;;;;;;;1.83;1.50;;;;;;;;;;5090160;28;20024;-82
2023/08/10 11:14:05;;;;;;;1.13;1.02;;;;;;;;;;5084764;28;20114;-83
2023/08/10 11:16:35;;;;;;;1.33;0.98;;;;;;;;;;5086111;28;20081;-83
2023/08/10 11:19:00;;;;;;;0.85;0.63;;;;;;;;;;5090498;28;20420;-82
2023/08/10 11:21:26;;;;;;;1.58;1.08;;;;;;;;;;5085703;28;20127;-82
2023/08/10 11:23:57;;;;;;;0.80;0.73;;;;;;;;;;5091000;28;20093;-82
2023/08/10 11:26:22;;;;;;;1.10;1.00;;;;;;;;;;5085314;28;20028;-82
2023/08/10 11:28:48;;;;;;;0.75;0.75;;;;;;;;;;5089106;28;20050;-82
2023/08/10 11:31:14;;;;;;;0.90;0.82;;;;;;;;;;5088726;28;20459;-82
2023/08/10 11:33:40;;;;;;;1.08;0.82;;;;;;;;;;5088327;28;20399;-82
2023/08/10 11:36:05;;;;;;;0.73;0.60;;;;;;;;;;5087959;28;20027;-82
2023/08/10 11:38:42;;;;;;;1.23;0.85;;;;;;;;;;5088451;28;20028;-82
2023/08/10 11:41:07;;;;;;;1.52;1.02;;;;;;;;;;5088972;28;20043;-82
2023/08/10 11:43:33;;;;;;;0.73;0.70;;;;;;;;;;5090216;28;20073;-83
2023/08/10 11:45:58;;;;;;;0.95;0.75;;;;;;;;;;5087943;28;20030;-83
2023/08/10 11:48:26;;;;;;;1.30;1.02;;;;;;;;;;5090270;28;20020;-84
2023/08/10 11:50:59;;;;;;;0.82;0.70;;;;;;;;;;5088886;28;20028;-82
2023/08/10 11:53:36;;;;;;;1.05;0.90;;;;;;;;;;5089535;28;20020;-83
2023/08/10 11:56:04;;;;;;;1.08;0.98;;;;;;;;;;5089937;28;20043;-82
2023/08/10 11:58:32;;;;;;;0.52;0.45;;;;;;;;;;5089983;28;20031;-83
2023/08/10 12:01:03;;;;;;;0.50;0.50;;;;;;;;;;5089904;28;20409;-83
2023/08/10 12:03:29;;;;;;;0.68;0.50;;;;;;;;;;5090088;28;20024;-82
2023/08/10 12:06:04;;;;;;;0.70;0.68;;;;;;;;;;5090351;28;20016;-82
2023/08/10 12:08:32;;;;;;;0.50;0.40;;;;;;;;;;5088473;28;20399;-83
2023/08/10 12:11:05;;;;;;;0.65;0.40;;;;;;;;;;5088924;28;20120;-83
2023/08/10 12:13:31;;;;;;;0.47;0.43;;;;;;;;;;5089647;28;20024;-82
2023/08/10 12:16:00;;;;;;;0.65;0.43;;;;;;;;;;5093536;28;20474;-83
2023/08/10 12:18:26;;;;;;;0.53;0.40;;;;;;;;;;5092333;28;20062;-85
2023/08/10 12:20:53;;;;;;;0.70;0.52;;;;;;;;;;5093600;28;20735;-83
2023/08/10 12:23:19;;;;;;;0.93;0.85;;;;;;;;;;5093241;28;20036;-83
2023/08/10 12:25:48;;;;;;;1.35;0.85;;;;;;;;;;5093136;28;20148;-82
2023/08/10 12:28:15;;;;;;;0.47;0.40;;;;;;;;;;5087051;28;20024;-83
2023/08/10 12:30:41;;;;;;;0.45;0.45;;;;;;;;;;5093670;28;20028;-82
2023/08/10 12:33:08;;;;;;;1.83;0.43;;;;;;;;;;5089857;28;20548;-82
2023/08/10 12:35:34;;;;;;;0.40;0.40;;;;;;;;;;5092856;28;20127;-82
2023/08/10 12:37:59;;;;;;;0.85;0.70;;;;;;;;;;5089746;28;20107;-82
2023/08/10 12:40:25;;;;;;;0.28;0.28;;;;;;;;;;5090465;28;20028;-82
2023/08/10 12:42:51;;;;;;;0.73;0.50;;;;;;;;;;5090252;28;20043;-82
2023/08/10 12:45:21;;;;;;;0.40;0.40;;;;;;;;;;5088918;28;20028;-84
2023/08/10 12:47:46;;;;;;;0.47;0.40;;;;;;;;;;5093028;28;20024;-85
2023/08/10 12:50:16;;;;;;;0.43;0.40;;;;;;;;;;5091160;28;20031;-85
2023/08/10 12:52:43;;;;;;;0.40;0.40;;;;;;;;;;5092332;28;20479;-83
2023/08/10 12:55:09;;;;;;;0.43;0.35;;;;;;;;;;5092367;28;20115;-83
2023/08/10 12:57:34;;;;;;;0.68;0.60;;;;;;;;;;5092687;28;20028;-83
2023/08/10 13:00:09;;;;;;;0.65;0.50;;;;;;;;;;5091958;28;20027;-85
2023/08/10 13:02:35;;;;;;;0.40;0.40;;;;;;;;;;5091503;28;20023;-85
2023/08/10 13:05:00;;;;;;;0.43;0.43;;;;;;;;;;5093137;28;20020;-85
2023/08/10 13:07:26;;;;;;;1.65;0.65;;;;;;;;;;5090353;28;20035;-85
2023/08/10 13:09:51;;;;;;;1.27;0.50;;;;;;;;;;5091293;28;20457;-83
2023/08/10 13:12:17;;;;;;;0.68;0.50;;;;;;;;;;5092355;28;20046;-83
2023/08/10 13:14:43;;;;;;;0.90;0.80;;;;;;;;;;5092517;28;20121;-83
2023/08/10 13:17:08;;;;;;;0.40;0.40;;;;;;;;;;5092169;28;20494;-82
2023/08/10 13:19:34;;;;;;;1.95;0.75;;;;;;;;;;5091080;28;20031;-83
2023/08/10 13:22:01;;;;;;;0.55;0.35;;;;;;;;;;5091018;28;20030;-82
2023/08/10 13:24:26;;;;;;;0.45;0.40;;;;;;;;;;5091128;28;20375;-82
2023/08/10 13:26:52;;;;;;;1.17;0.55;;;;;;;;;;5091789;28;20035;-82
2023/08/10 13:29:18;;;;;;;0.90;0.40;;;;;;;;;;5092208;28;20049;-82
2023/08/10 13:31:43;;;;;;;0.68;0.50;;;;;;;;;;5090751;28;20480;-82
2023/08/10 13:34:11;;;;;;;0.52;0.35;;;;;;;;;;5092139;28;20066;-82
2023/08/10 13:36:38;;;;;;;0.38;0.32;;;;;;;;;;5091678;28;20057;-82
2023/08/10 13:39:04;;;;;;;2.38;0.85;;;;;;;;;;5092180;28;20434;-83
2023/08/10 13:41:30;;;;;;;0.50;0.40;;;;;;;;;;5091387;28;20028;-82
2023/08/10 13:43:55;;;;;;;0.15;0.15;;;;;;;;;;5091977;28;20026;-82
2023/08/10 13:46:21;;;;;;;0.93;0.70;;;;;;;;;;5091625;28;20552;-82
2023/08/10 13:48:46;;;;;;;0.80;0.60;;;;;;;;;;5090155;28;20455;-82
2023/08/10 13:51:12;;;;;;;0.75;0.63;;;;;;;;;;5091240;28;20024;-82
2023/08/10 13:53:38;;;;;;;0.47;0.45;;;;;;;;;;5091829;28;20107;-82
2023/08/10 13:56:04;;;;;;;0.95;0.57;;;;;;;;;;5090149;28;20448;-82
2023/08/10 13:58:29;;;;;;;0.45;0.45;;;;;;;;;;5091794;28;20404;-84
2023/08/10 14:00:55;;;;;;;0.32;0.30;;;;;;;;;;5089991;28;20115;-83
2023/08/10 14:03:20;;;;;;;0.40;0.40;;;;;;;;;;5091666;28;20537;-83
2023/08/10 14:05:46;;;;;;;0.30;0.30;;;;;;;;;;5090760;28;20024;-82
2023/08/10 14:08:12;;;;;;;0.65;0.57;;;;;;;;;;5091325;28;20020;-82
2023/08/10 14:10:38;;;;;;;0.65;0.40;;;;;;;;;;5091247;28;20023;-81
2023/08/10 14:13:03;;;;;;;0.32;0.28;;;;;;;;;;5091552;28;20023;-83
2023/08/10 14:15:29;;;;;;;1.42;0.50;;;;;;;;;;5090967;28;20036;-83
2023/08/10 14:17:54;;;;;;;0.50;0.30;;;;;;;;;;5091304;28;20059;-82
2023/08/10 14:20:20;;;;;;;0.30;0.30;;;;;;;;;;5090628;28;20082;-83
2023/08/10 14:22:45;;;;;;;0.38;0.38;;;;;;;;;;5088986;28;20032;-82
2023/08/10 14:25:11;;;;;;;0.20;0.20;;;;;;;;;;5090943;28;20160;-82
2023/08/10 14:27:36;;;;;;;0.65;0.47;;;;;;;;;;5091266;28;20376;-82
2023/08/10 14:30:03;;;;;;;0.57;0.30;;;;;;;;;;5091129;28;20372;-82
2023/08/10 14:32:28;;;;;;;0.32;0.32;;;;;;;;;;5090888;28;20035;-82
2023/08/10 14:34:54;;;;;;;0.57;0.50;;;;;;;;;;5090291;28;20027;-83
2023/08/10 14:37:20;;;;;;;0.22;0.22;;;;;;;;;;5090558;28;20035;-82
2023/08/10 14:39:45;;;;;;;0.63;0.50;;;;;;;;;;5085787;28;20376;-82
2023/08/10 14:42:11;;;;;;;0.45;0.45;;;;;;;;;;5089385;28;20035;-82